createdAt,value
2019-05-14T00:04:31.419Z,55.65
2019-05-14T00:09:35.405Z,55.88
2019-05-14T00:14:43.176Z,56.13
2019-05-14T00:19:45.939Z,55.68
2019-05-14T00:24:51.899Z,55.65
2019-05-14T00:29:55.677Z,56.32
2019-05-14T00:35:02.053Z,55.88
2019-05-14T00:40:05.868Z,56.25
2019-05-14T00:45:11.572Z,56.36
2019-05-14T00:50:15.866Z,56.07
2019-05-14T00:55:22.108Z,56.60
2019-05-14T01:00:25.762Z,56.55
2019-05-14T01:05:31.989Z,56.32
2019-05-14T01:10:35.600Z,56.91
2019-05-14T01:15:41.482Z,56.41
2019-05-14T01:20:45.385Z,56.34
2019-05-14T01:25:51.451Z,56.89
2019-05-14T01:30:55.303Z,56.90
2019-05-14T01:36:01.798Z,57.26
2019-05-14T01:41:05.351Z,57.26
2019-05-14T01:46:09.428Z,57.18
2019-05-14T01:51:13.435Z,57.56
2019-05-14T01:56:17.629Z,57.17
2019-05-14T02:01:22.035Z,57.17
2019-05-14T02:06:26.052Z,57.57
2019-05-14T02:11:32.032Z,57.84
2019-05-14T02:16:35.980Z,57.69
2019-05-14T02:21:42.314Z,58.22
2019-05-14T02:26:45.740Z,58.14
2019-05-14T02:31:50.554Z,57.90
2019-05-14T02:36:54.924Z,58.41
2019-05-14T02:41:59.162Z,57.96
2019-05-14T02:47:03.358Z,58.50
2019-05-14T02:52:10.072Z,58.03
2019-05-14T02:57:13.288Z,58.44
2019-05-14T03:02:18.802Z,58.44
2019-05-14T03:07:23.266Z,58.26
2019-05-14T03:12:30.175Z,58.51
2019-05-14T03:17:33.041Z,58.63
2019-05-14T03:22:46.540Z,58.48
2019-05-14T03:27:43.074Z,58.35
2019-05-14T03:32:52.095Z,58.35
2019-05-14T03:37:53.126Z,58.92
2019-05-14T03:42:59.801Z,58.98
2019-05-14T03:48:03.131Z,58.74
2019-05-14T03:53:10.147Z,58.87
2019-05-14T03:58:13.218Z,58.56
2019-05-14T04:03:19.861Z,58.53
2019-05-14T04:08:25.283Z,58.14
2019-05-14T04:13:32.157Z,58.30
2019-05-14T04:18:40.481Z,58.59
2019-05-14T04:23:50.630Z,58.59
2019-05-14T04:29:00.394Z,57.87
2019-05-14T04:34:04.087Z,58.35
2019-05-14T04:39:09.410Z,58.35
2019-05-14T04:44:13.868Z,57.87
2019-05-14T04:49:19.949Z,58.05
2019-05-14T04:54:23.746Z,57.94
2019-05-14T04:59:29.981Z,58.38
2019-05-14T05:04:33.494Z,57.92
2019-05-14T05:09:39.706Z,58.41
2019-05-14T05:14:43.343Z,58.56
2019-05-14T05:19:51.231Z,58.17
2019-05-14T05:24:53.102Z,58.17
2019-05-14T05:29:58.969Z,58.47
2019-05-14T05:35:03.247Z,58.48
2019-05-14T05:40:09.123Z,58.47
2019-05-14T05:45:13.699Z,58.13
2019-05-14T05:50:19.299Z,58.60
2019-05-14T05:55:23.563Z,58.60
2019-05-14T06:00:39.459Z,57.99
2019-05-14T06:05:42.266Z,58.58
2019-05-14T06:10:48.768Z,58.62
2019-05-14T06:15:52.572Z,57.99
2019-05-14T06:20:58.629Z,57.99
2019-05-14T06:26:02.469Z,58.34
2019-05-14T06:31:09.755Z,58.35
2019-05-14T06:36:14.483Z,57.94
2019-05-14T06:41:19.144Z,57.94
2019-05-14T06:46:23.470Z,57.93
2019-05-14T06:51:28.859Z,57.93
2019-05-14T06:56:32.969Z,58.15
2019-05-14T07:01:38.456Z,57.19
2019-05-14T07:06:42.715Z,57.19
2019-05-14T07:11:48.948Z,57.19
2019-05-14T07:16:52.633Z,56.40
2019-05-14T07:21:58.311Z,57.17
2019-05-14T07:27:02.484Z,57.02
2019-05-14T07:32:08.951Z,56.45
2019-05-14T07:37:12.316Z,57.03
2019-05-14T07:42:18.358Z,57.03
2019-05-14T07:47:22.230Z,56.85
2019-05-14T07:52:28.300Z,56.83
2019-05-14T07:57:32.057Z,56.86
2019-05-14T08:02:38.046Z,56.50
2019-05-14T08:07:42.029Z,56.76
2019-05-14T08:12:48.325Z,56.57
2019-05-14T08:17:51.895Z,56.81
2019-05-14T08:22:58.164Z,56.33
2019-05-14T08:28:01.927Z,56.40
2019-05-14T08:33:06.059Z,56.32
2019-05-14T08:38:12.214Z,56.32
2019-05-14T08:43:18.304Z,56.74
2019-05-14T08:48:21.714Z,56.46
2019-05-14T08:53:25.789Z,56.46
2019-05-14T08:58:30.248Z,56.40
2019-05-14T09:03:34.390Z,56.33
2019-05-14T09:08:38.929Z,56.78
2019-05-14T09:13:43.553Z,56.78
2019-05-14T09:18:49.197Z,56.81
2019-05-14T09:23:53.501Z,56.80
2019-05-14T09:28:58.666Z,56.80
2019-05-14T09:34:02.897Z,56.70
2019-05-14T09:39:11.795Z,56.70
2019-05-14T09:44:13.834Z,56.71
2019-05-14T09:49:18.712Z,56.71
2019-05-14T09:54:22.834Z,56.47
2019-05-14T09:59:28.056Z,56.24
2019-05-14T10:04:32.237Z,56.64
2019-05-14T10:09:38.988Z,56.57
2019-05-14T10:14:42.090Z,56.33
2019-05-14T10:19:46.150Z,56.14
2019-05-14T10:24:50.182Z,56.14
2019-05-14T10:29:54.461Z,56.24
2019-05-14T10:34:58.976Z,56.30
2019-05-14T10:40:03.572Z,52.98
2019-05-14T10:45:12.475Z,44.98
2019-05-14T10:50:14.265Z,44.31
2019-05-14T10:55:18.616Z,45.95
2019-05-14T11:00:23.043Z,45.05
2019-05-14T11:05:28.149Z,44.77
2019-05-14T11:10:32.267Z,46.31
2019-05-14T11:15:39.258Z,45.98
2019-05-14T11:20:42.496Z,45.34
2019-05-14T11:25:48.781Z,47.37
2019-05-14T11:30:52.649Z,46.68
2019-05-14T11:35:58.491Z,47.43
2019-05-14T11:41:02.779Z,47.43
2019-05-14T11:46:08.635Z,48.15
2019-05-14T11:51:12.950Z,48.16
2019-05-14T11:56:19.080Z,48.52
2019-05-14T12:01:22.811Z,49.26
2019-05-14T12:06:26.827Z,51.01
2019-05-14T12:11:30.939Z,51.82
2019-05-14T12:16:35.124Z,51.84
2019-05-14T12:21:39.850Z,52.03
2019-05-14T12:26:44.087Z,52.03
2019-05-14T12:31:50.576Z,55.61
2019-05-14T12:36:54.126Z,55.61
2019-05-14T12:41:58.264Z,58.05
2019-05-14T12:47:02.331Z,57.94
2019-05-14T12:52:21.496Z,58.73
2019-05-14T12:57:12.368Z,58.73
2019-05-14T13:02:18.743Z,54.38
2019-05-14T13:07:22.427Z,55.75
2019-05-14T13:12:26.519Z,55.06
2019-05-14T13:17:30.553Z,55.64
2019-05-14T13:22:42.567Z,56.29
2019-05-14T13:27:40.402Z,55.35
2019-05-14T13:32:44.477Z,55.35
2019-05-14T13:37:49.038Z,55.41
2019-05-14T13:42:53.343Z,55.41
2019-05-14T13:47:59.112Z,55.58
2019-05-14T13:53:09.446Z,55.07
2019-05-14T13:58:09.700Z,55.21
2019-05-14T14:03:13.987Z,55.19
2019-05-14T14:08:19.337Z,55.42
2019-05-14T14:13:23.591Z,55.52
2019-05-14T14:18:29.338Z,55.97
2019-05-14T14:23:33.755Z,56.07
2019-05-14T14:28:39.673Z,56.07
2019-05-14T14:33:43.641Z,55.81
2019-05-14T14:38:49.486Z,55.68
2019-05-14T14:43:55.191Z,55.68
2019-05-14T14:49:02.563Z,55.79
2019-05-14T14:54:10.805Z,55.80
2019-05-14T14:59:11.051Z,55.60
2019-05-14T15:04:15.164Z,55.60
2019-05-14T15:09:19.291Z,55.61
2019-05-14T15:14:23.369Z,56.03
2019-05-14T15:19:29.795Z,56.25
2019-05-14T15:24:33.253Z,56.25
2019-05-14T15:29:39.053Z,56.67
2019-05-14T15:34:43.215Z,56.55
2019-05-14T15:39:49.077Z,56.19
2019-05-14T15:44:56.007Z,56.72
2019-05-14T15:49:59.587Z,56.72
2019-05-14T15:55:04.416Z,56.57
2019-05-14T16:00:09.626Z,56.15
2019-05-14T16:05:13.816Z,56.15
2019-05-14T16:10:21.577Z,54.90
2019-05-14T16:15:23.758Z,54.15
2019-05-14T16:20:29.584Z,54.15
2019-05-14T16:25:33.621Z,53.99
2019-05-14T16:30:39.723Z,53.63
2019-05-14T16:35:44.083Z,53.39
2019-05-14T16:40:49.270Z,54.07
2019-05-14T16:45:53.404Z,53.97
2019-05-14T16:50:58.436Z,54.03
2019-05-14T16:56:02.628Z,54.03
2019-05-14T17:01:09.239Z,53.74
2019-05-14T17:06:12.691Z,53.97
2019-05-14T17:11:18.238Z,53.41
2019-05-14T17:16:22.463Z,53.55
2019-05-14T17:21:26.537Z,53.99
2019-05-14T17:26:32.759Z,53.99
2019-05-14T17:31:39.123Z,53.80
2019-05-14T17:36:42.696Z,53.71
2019-05-14T17:41:48.485Z,53.94
2019-05-14T17:46:52.727Z,54.26
2019-05-14T17:51:58.116Z,54.14
2019-05-14T17:57:02.420Z,54.00
2019-05-14T18:02:08.717Z,54.22
2019-05-14T18:07:12.425Z,54.65
2019-05-14T18:12:18.985Z,54.73
2019-05-14T18:17:22.335Z,54.88
2019-05-14T18:22:28.660Z,54.88
2019-05-14T18:27:32.219Z,54.73
2019-05-14T18:32:36.342Z,54.80
2019-05-14T18:37:40.389Z,54.90
2019-05-14T18:42:44.477Z,55.02
2019-05-14T18:47:52.130Z,55.49
2019-05-14T18:52:56.325Z,55.66
2019-05-14T18:58:01.117Z,55.47
2019-05-14T19:03:05.367Z,55.80
2019-05-14T19:08:09.382Z,55.80
2019-05-14T19:13:13.409Z,56.01
2019-05-14T19:18:19.205Z,56.04
2019-05-14T19:23:23.507Z,55.83
2019-05-14T19:28:28.297Z,55.80
2019-05-14T19:33:33.038Z,55.85
2019-05-14T19:38:38.893Z,55.61
2019-05-14T19:43:42.930Z,55.67
2019-05-14T19:48:48.393Z,55.53
2019-05-14T19:53:52.683Z,55.53
2019-05-14T19:58:56.762Z,55.79
2019-05-14T20:04:00.774Z,55.79
2019-05-14T20:09:09.516Z,54.44
2019-05-14T20:14:13.191Z,54.81
2019-05-14T20:19:19.237Z,54.81
2019-05-14T20:24:23.042Z,54.81
2019-05-14T20:29:27.071Z,54.92
2019-05-14T20:34:31.099Z,54.92
2019-05-14T20:39:35.163Z,55.45
2019-05-14T20:44:39.265Z,55.87
2019-05-14T20:49:43.291Z,56.09
2019-05-14T20:54:47.311Z,55.54
2019-05-14T20:59:51.498Z,55.70
2019-05-14T21:04:56.295Z,56.24
2019-05-14T21:10:01.487Z,56.04
2019-05-14T21:15:08.939Z,56.04
2019-05-14T21:20:12.990Z,56.23
2019-05-14T21:25:18.418Z,56.44
2019-05-14T21:30:22.845Z,56.44
2019-05-14T21:35:28.960Z,56.87
2019-05-14T21:40:32.802Z,56.75
2019-05-14T21:45:38.354Z,56.97
2019-05-14T21:50:42.702Z,56.72
2019-05-14T21:55:47.898Z,57.07
2019-05-14T22:00:55.228Z,57.18
2019-05-14T22:05:59.496Z,57.09
2019-05-14T22:11:03.810Z,57.17
2019-05-14T22:16:08.526Z,57.37
2019-05-14T22:21:12.803Z,57.83
2019-05-14T22:26:18.593Z,57.47
2019-05-14T22:31:22.919Z,57.51
2019-05-14T22:36:29.337Z,57.59
2019-05-14T22:41:32.870Z,57.59
2019-05-14T22:46:39.986Z,57.74
2019-05-14T22:51:43.244Z,57.79
2019-05-14T22:56:48.159Z,57.74
2019-05-14T23:01:52.496Z,57.74
2019-05-14T23:06:58.597Z,58.13
2019-05-14T23:12:02.383Z,58.13
2019-05-14T23:17:08.131Z,58.89
2019-05-14T23:22:12.472Z,58.67
2019-05-14T23:27:18.721Z,58.89
2019-05-14T23:32:22.537Z,59.31
2019-05-14T23:37:28.960Z,59.39
2019-05-14T23:42:32.675Z,59.11
2019-05-14T23:47:38.271Z,59.71
2019-05-14T23:52:42.547Z,59.65
2019-05-14T23:57:48.105Z,59.25
